createdAt,value
2017-03-07T00:01:00.259Z,94.37
2017-03-07T00:02:01.641Z,93.84
2017-03-07T00:03:03.197Z,93.84
2017-03-07T00:04:04.634Z,93.84
2017-03-07T00:05:06.024Z,93.84
2017-03-07T00:06:07.579Z,94.03
2017-03-07T00:07:08.941Z,93.65
2017-03-07T00:08:10.342Z,94.42
2017-03-07T00:09:11.732Z,93.65
2017-03-07T00:10:13.054Z,94.42
2017-03-07T00:11:14.453Z,94.42
2017-03-07T00:12:15.822Z,94.23
2017-03-07T00:13:17.285Z,94.23
2017-03-07T00:14:18.663Z,94.23
2017-03-07T00:15:20.122Z,94.6
2017-03-07T00:16:21.705Z,94.23
2017-03-07T00:17:23.134Z,94.32
2017-03-07T00:18:24.478Z,94.42
2017-03-07T00:19:25.983Z,94.03
2017-03-07T00:20:27.420Z,94.32
2017-03-07T00:21:28.752Z,94.08
2017-03-07T00:22:30.143Z,94.03
2017-03-07T00:23:31.478Z,94.03
2017-03-07T00:24:32.938Z,94.51
2017-03-07T00:25:34.296Z,94.23
2017-03-07T00:26:35.789Z,94.42
2017-03-07T00:27:37.156Z,94.27
2017-03-07T00:28:38.520Z,94.42
2017-03-07T00:29:39.975Z,94.18
2017-03-07T00:30:41.248Z,94.13
2017-03-07T00:31:42.741Z,94.03
2017-03-07T00:32:44.171Z,94.23
2017-03-07T00:33:45.643Z,94.27
2017-03-07T00:34:47.146Z,94.46
2017-03-07T00:35:48.788Z,94.37
2017-03-07T00:36:50.069Z,94.27
2017-03-07T00:37:51.501Z,94.6
2017-03-07T00:38:53.151Z,94.27
2017-03-07T00:39:54.649Z,94.42
2017-03-07T00:40:56.150Z,94.23
2017-03-07T00:41:57.449Z,94.42
2017-03-07T00:42:58.794Z,94.23
2017-03-07T00:44:00.583Z,94.23
2017-03-07T00:45:02.043Z,94.23
2017-03-07T00:46:03.497Z,94.51
2017-03-07T00:47:04.769Z,94.13
2017-03-07T00:48:06.376Z,94.51
2017-03-07T00:49:07.895Z,94.23
2017-03-07T00:50:09.289Z,94.32
2017-03-07T00:51:10.617Z,94.42
2017-03-07T00:52:12.085Z,94.32
2017-03-07T00:53:13.477Z,94.42
2017-03-07T00:54:14.902Z,94.13
2017-03-07T00:55:16.410Z,94.6
2017-03-07T00:56:17.810Z,94.79
2017-03-07T00:57:19.228Z,94.98
2017-03-07T00:58:20.481Z,95.17
2017-03-07T00:59:21.962Z,94.89
2017-03-07T01:00:23.421Z,94.89
2017-03-07T01:01:25.302Z,94.98
2017-03-07T01:02:26.813Z,94.98
2017-03-07T01:03:28.270Z,95.46
2017-03-07T01:04:29.860Z,95.36
2017-03-07T01:05:31.283Z,95.65
2017-03-07T01:06:32.660Z,95.74
2017-03-07T01:07:34.062Z,95.93
2017-03-07T01:08:35.354Z,96.03
2017-03-07T01:09:36.716Z,96.03
2017-03-07T01:10:38.340Z,96.22
2017-03-07T01:11:40.151Z,96.22
2017-03-07T01:12:41.612Z,96.69
2017-03-07T01:13:42.952Z,96.41
2017-03-07T01:14:44.470Z,96.88
2017-03-07T01:15:46.035Z,96.59
2017-03-07T01:16:47.410Z,96.97
2017-03-07T01:17:48.814Z,96.69
2017-03-07T01:18:50.363Z,96.22
2017-03-07T01:19:51.860Z,95.98
2017-03-07T01:20:53.135Z,96.08
2017-03-07T01:21:54.641Z,96.08
2017-03-07T01:22:55.992Z,96.08
2017-03-07T01:23:57.372Z,96.26
2017-03-07T01:24:58.616Z,96.26
2017-03-07T01:26:00.077Z,96.36
2017-03-07T01:27:01.367Z,96.55
2017-03-07T01:28:02.863Z,96.92
2017-03-07T01:29:04.347Z,97.02
2017-03-07T01:30:06.195Z,96.69
2017-03-07T01:31:07.718Z,97.17
2017-03-07T01:32:09.287Z,97.07
2017-03-07T01:33:10.788Z,97.17
2017-03-07T01:34:12.420Z,97.07
2017-03-07T01:35:13.686Z,97.17
2017-03-07T01:36:15.137Z,97.36
2017-03-07T01:37:16.386Z,96.88
2017-03-07T01:38:17.843Z,97.26
2017-03-07T01:39:19.325Z,97.07
2017-03-07T01:40:20.977Z,97.07
2017-03-07T01:41:22.381Z,97.26
2017-03-07T01:42:23.861Z,96.88
2017-03-07T01:43:25.297Z,97.17
2017-03-07T01:44:26.829Z,97.17
2017-03-07T01:45:28.221Z,96.88
2017-03-07T01:46:29.897Z,96.69
2017-03-07T01:47:31.599Z,96.69
2017-03-07T01:48:33.111Z,96.31
2017-03-07T01:49:34.435Z,96.03
2017-03-07T01:50:35.746Z,96.31
2017-03-07T01:51:37.273Z,96.31
2017-03-07T01:52:38.598Z,95.98
2017-03-07T01:53:40.022Z,96.36
2017-03-07T01:54:41.347Z,95.79
2017-03-07T01:55:42.680Z,95.89
2017-03-07T01:56:44.093Z,95.31
2017-03-07T01:57:45.723Z,95.7
2017-03-07T01:58:47.155Z,95.03
2017-03-07T01:59:48.662Z,95.03
2017-03-07T02:00:50.301Z,95.51
2017-03-07T02:01:51.668Z,94.84
2017-03-07T02:02:53.005Z,94.74
2017-03-07T02:03:54.286Z,95.03
2017-03-07T02:04:57.387Z,95.03
2017-03-07T02:05:58.634Z,94.93
2017-03-07T02:07:00.221Z,94.74
2017-03-07T02:08:01.461Z,94.74
2017-03-07T02:09:02.785Z,94.08
2017-03-07T02:10:04.159Z,94.27
2017-03-07T02:11:05.403Z,94.46
2017-03-07T02:12:06.710Z,94.46
2017-03-07T02:13:07.990Z,94.37
2017-03-07T02:14:09.372Z,94.27
2017-03-07T02:15:10.625Z,94.08
2017-03-07T02:16:11.897Z,94.18
2017-03-07T02:17:13.200Z,94.46
2017-03-07T02:18:14.501Z,94.46
2017-03-07T02:19:15.813Z,94.18
2017-03-07T02:20:17.133Z,93.8
2017-03-07T02:21:18.551Z,93.89
2017-03-07T02:22:20.196Z,93.7
2017-03-07T02:23:21.565Z,93.89
2017-03-07T02:24:22.817Z,93.89
2017-03-07T02:25:24.399Z,93.99
2017-03-07T02:26:25.770Z,93.8
2017-03-07T02:27:27.175Z,93.6
2017-03-07T02:28:28.460Z,94.08
2017-03-07T02:29:29.785Z,93.7
2017-03-07T02:30:31.108Z,93.6
2017-03-07T02:31:32.420Z,93.7
2017-03-07T02:32:33.676Z,93.7
2017-03-07T02:45:37.109Z,94.08
2017-03-07T02:46:38.400Z,93.7
2017-03-07T02:47:39.638Z,94.46
2017-03-07T02:48:40.890Z,94.56
2017-03-07T02:49:42.171Z,94.37
2017-03-07T02:50:43.412Z,94.74
2017-03-07T02:51:44.676Z,94.56
2017-03-07T02:52:45.973Z,94.65
2017-03-07T02:53:47.213Z,94.65
2017-03-07T02:54:48.446Z,94.65
2017-03-07T02:55:49.682Z,94.37
2017-03-07T02:56:50.913Z,94.27
2017-03-07T02:57:52.231Z,94.46
2017-03-07T02:58:53.438Z,94.37
2017-03-07T02:59:55.341Z,94.37
2017-03-07T03:00:56.843Z,94.27
2017-03-07T03:01:58.306Z,94.74
2017-03-07T03:02:59.695Z,94.65
2017-03-07T03:04:01.639Z,93.89
2017-03-07T03:05:04.444Z,93.51
2017-03-07T03:06:06.743Z,94.08
2017-03-07T03:07:08.475Z,94.27
2017-03-07T03:08:10.204Z,93.7
2017-03-07T03:09:11.658Z,94.08
2017-03-07T03:10:13.721Z,93.89
2017-03-07T03:11:14.990Z,93.89
2017-03-07T03:12:16.554Z,93.99
2017-03-07T03:13:17.998Z,93.8
2017-03-07T03:14:19.274Z,93.7
2017-03-07T03:15:20.498Z,93.8
2017-03-07T03:16:21.968Z,93.89
2017-03-07T03:17:23.396Z,94.08
2017-03-07T03:18:24.677Z,93.6
2017-03-07T03:19:26.156Z,93.89
2017-03-07T03:20:27.399Z,93.89
2017-03-07T03:21:28.654Z,93.8
2017-03-07T03:22:29.984Z,94.08
2017-03-07T03:23:31.484Z,93.7
2017-03-07T03:24:32.754Z,93.41
2017-03-07T03:25:34.321Z,93.51
2017-03-07T03:26:36.068Z,93.32
2017-03-07T03:27:37.410Z,93.41
2017-03-07T03:28:39.262Z,93.6
2017-03-07T03:29:40.752Z,93.7
2017-03-07T07:34:16.751Z,93.27
2017-03-07T07:35:17.911Z,93.65
2017-03-07T07:36:19.156Z,93.27
2017-03-07T07:37:20.401Z,93.18
2017-03-07T07:38:21.744Z,93.37
2017-03-07T07:39:22.991Z,93.75
2017-03-07T07:40:24.244Z,94.13
2017-03-07T07:41:25.483Z,93.94
2017-03-07T07:42:26.794Z,93.89
2017-03-07T07:43:28.076Z,94.13
2017-03-07T07:44:29.388Z,94.03
2017-03-07T07:45:30.647Z,93.46
2017-03-07T07:46:31.893Z,94.13
2017-03-07T07:47:33.114Z,93.65
2017-03-07T07:48:34.440Z,93.84
2017-03-07T07:49:35.713Z,93.75
2017-03-07T07:50:36.939Z,93.65
2017-03-07T07:51:38.183Z,93.65
2017-03-07T07:52:39.427Z,93.46
2017-03-07T07:53:40.674Z,93.56
2017-03-07T07:54:41.900Z,93.56
2017-03-07T07:55:43.156Z,93.27
2017-03-07T07:56:44.450Z,93.18
2017-03-07T07:57:45.672Z,93.37
2017-03-07T07:58:46.926Z,93.56
2017-03-07T07:59:48.161Z,93.08
2017-03-07T08:00:49.401Z,93.08
2017-03-07T08:01:50.650Z,92.71
2017-03-07T08:02:52.013Z,92.8
2017-03-07T08:03:53.254Z,92.8
2017-03-07T08:04:54.518Z,92.23
2017-03-07T08:05:55.758Z,92.32
2017-03-07T08:06:56.997Z,92.42
2017-03-07T08:07:58.273Z,92.23
2017-03-07T08:08:59.519Z,91.94
2017-03-07T08:10:00.787Z,91.85
2017-03-07T08:11:02.063Z,91.56
2017-03-07T08:12:03.305Z,91.75
2017-03-07T08:13:04.566Z,91.28
2017-03-07T08:14:05.786Z,91.42
2017-03-07T08:15:07.029Z,91.42
2017-03-07T08:16:08.405Z,91.42
2017-03-07T08:17:09.641Z,91.52
2017-03-07T08:18:10.876Z,91.04
2017-03-07T08:19:12.122Z,90.94
2017-03-07T08:20:13.393Z,90.66
2017-03-07T08:21:14.702Z,90.75
2017-03-07T08:22:15.984Z,90.66
2017-03-07T08:23:17.216Z,89.61
2017-03-07T08:24:18.480Z,89.33
2017-03-07T08:25:19.722Z,89.42
2017-03-07T08:26:20.954Z,89.42
2017-03-07T08:27:22.352Z,89.71
2017-03-07T08:28:23.711Z,89.42
2017-03-07T08:29:24.853Z,89.71
2017-03-07T08:30:26.107Z,89.52
2017-03-07T08:31:27.330Z,89.37
2017-03-07T08:32:28.691Z,89.23
2017-03-07T08:33:29.992Z,89.18
2017-03-07T08:34:31.207Z,87.47
2017-03-07T08:35:32.454Z,87.19
2017-03-07T08:36:33.716Z,87.19
2017-03-07T08:37:34.927Z,87.47
2017-03-07T08:38:36.203Z,87.09
2017-03-07T08:39:37.417Z,86.52
2017-03-07T08:40:38.653Z,87.09
2017-03-07T08:41:39.949Z,86.43
2017-03-07T08:42:41.141Z,86.61
2017-03-07T08:43:42.410Z,87.28
2017-03-07T08:44:43.637Z,86.9
2017-03-07T08:45:44.866Z,87.09
2017-03-07T08:46:46.138Z,86.43
2017-03-07T08:47:47.366Z,86.71
2017-03-07T08:48:48.617Z,86.05
2017-03-07T08:49:49.907Z,85.76
2017-03-07T08:50:51.169Z,85
2017-03-07T08:51:52.433Z,85.1
2017-03-07T08:52:53.657Z,85.38
2017-03-07T08:53:54.926Z,85.95
2017-03-07T08:54:56.201Z,86.05
2017-03-07T08:55:57.454Z,85.57
2017-03-07T08:56:58.713Z,85.76
2017-03-07T08:57:59.958Z,85.1
2017-03-07T08:59:01.182Z,85.28
2017-03-07T09:00:02.438Z,85.66
2017-03-07T09:01:03.824Z,86.43
2017-03-07T09:02:05.065Z,86.33
2017-03-07T09:03:06.317Z,86.24
2017-03-07T09:04:07.589Z,86.05
2017-03-07T09:05:08.892Z,86.24
2017-03-07T09:06:10.138Z,86.8
2017-03-07T09:07:11.372Z,87.28
2017-03-07T09:08:12.707Z,87.28
2017-03-07T09:09:13.947Z,86.61
2017-03-07T09:10:15.185Z,86.71
2017-03-07T09:11:16.536Z,85.76
2017-03-07T09:12:17.793Z,85.66
2017-03-07T09:13:19.010Z,85.19
2017-03-07T09:14:20.263Z,85.1
2017-03-07T09:15:21.568Z,85.28
2017-03-07T09:16:22.789Z,85.28
2017-03-07T09:17:24.048Z,85.04
2017-03-07T09:18:25.275Z,84.66
2017-03-07T09:19:26.575Z,84.47
2017-03-07T09:20:27.815Z,84.47
2017-03-07T09:21:29.054Z,84.19
2017-03-07T09:22:30.287Z,84.28
2017-03-07T09:23:31.534Z,84.47
2017-03-07T09:24:32.878Z,84.09
2017-03-07T09:25:34.148Z,83.33
2017-03-07T09:26:35.406Z,83.52
2017-03-07T09:27:36.634Z,83.04
2017-03-07T09:28:37.896Z,83.42
2017-03-07T09:29:39.135Z,82.57
2017-03-07T09:30:40.466Z,82.48
2017-03-07T09:31:41.708Z,83.23
2017-03-07T09:32:42.955Z,82.38
2017-03-07T09:33:44.214Z,82.67
2017-03-07T09:34:45.451Z,82.95
2017-03-07T09:35:46.786Z,82.95
2017-03-07T09:36:48.045Z,82.28
2017-03-07T09:37:49.276Z,81.62
2017-03-07T09:38:50.539Z,80.76
2017-03-07T09:39:51.775Z,81.09
2017-03-07T09:40:53.011Z,80.99
2017-03-07T09:41:54.261Z,81.28
2017-03-07T09:42:55.489Z,82.61
2017-03-07T09:43:56.757Z,82.86
2017-03-07T09:44:57.998Z,82.57
2017-03-07T09:45:59.258Z,83.52
2017-03-07T09:47:00.476Z,83.62
2017-03-07T09:48:01.728Z,83.71
2017-03-07T09:49:02.983Z,83.71
2017-03-07T09:50:04.281Z,83.23
2017-03-07T09:51:05.763Z,84.28
2017-03-07T09:52:07.022Z,84.09
2017-03-07T09:53:08.240Z,84.76
2017-03-07T09:54:09.498Z,84.28
2017-03-07T09:55:10.708Z,83.33
2017-03-07T09:56:11.947Z,83.04
2017-03-07T09:57:13.187Z,82.95
2017-03-07T09:58:14.416Z,82.57
2017-03-07T09:59:15.678Z,82.38
2017-03-07T10:00:16.902Z,82.57
2017-03-07T10:01:18.180Z,82.76
2017-03-07T10:02:19.388Z,83.23
2017-03-07T10:03:20.726Z,82.28
2017-03-07T10:04:22.004Z,82.09
2017-03-07T10:05:23.213Z,82.28
2017-03-07T10:06:24.457Z,82.09
2017-03-07T10:07:25.698Z,82
2017-03-07T10:08:26.947Z,82.38
2017-03-07T10:09:28.312Z,82.57
2017-03-07T10:10:29.501Z,81.14
2017-03-07T10:11:30.740Z,80.95
2017-03-07T10:12:31.980Z,81.24
2017-03-07T10:13:33.214Z,81.71
2017-03-07T10:14:34.505Z,82.38
2017-03-07T10:15:35.744Z,82.38
2017-03-07T10:16:37.003Z,81.81
2017-03-07T10:17:38.302Z,82.95
2017-03-07T10:18:39.543Z,83.33
2017-03-07T10:19:40.761Z,83.62
2017-03-07T10:20:41.993Z,83.9
2017-03-07T10:21:43.248Z,83.52
2017-03-07T10:22:44.496Z,83.62
2017-03-07T10:23:45.773Z,83.33
2017-03-07T10:24:47.029Z,83.42
2017-03-07T10:25:48.237Z,83.62
2017-03-07T10:26:49.468Z,83.23
2017-03-07T10:27:50.713Z,83.33
2017-03-07T10:28:51.994Z,82.76
2017-03-07T10:29:53.231Z,82.57
2017-03-07T10:30:54.515Z,82.09
2017-03-07T10:31:55.859Z,82.15
2017-03-07T10:32:57.159Z,82.34
2017-03-07T10:33:58.409Z,82.48
2017-03-07T10:34:59.652Z,82.57
2017-03-07T10:36:00.949Z,82.95
2017-03-07T10:37:02.190Z,83
2017-03-07T10:38:03.451Z,82.95
2017-03-07T10:39:04.682Z,82.95
2017-03-07T10:40:05.939Z,83.23
2017-03-07T10:41:07.154Z,83.23
2017-03-07T10:42:08.420Z,82.95
2017-03-07T10:43:09.763Z,83.42
2017-03-07T10:44:10.975Z,83.48
2017-03-07T10:45:12.210Z,83.19
2017-03-07T10:46:13.451Z,83.95
2017-03-07T10:47:14.702Z,84.14
2017-03-07T10:48:15.995Z,84.33
2017-03-07T10:49:17.214Z,84.62
2017-03-07T10:50:18.456Z,84.72
2017-03-07T10:51:19.706Z,84.91
2017-03-07T10:52:20.945Z,84.91
2017-03-07T10:53:22.199Z,85.28
2017-03-07T10:54:23.455Z,85.1
2017-03-07T10:55:24.734Z,85.95
2017-03-07T10:56:26.051Z,86.24
2017-03-07T10:57:27.268Z,86.24
2017-03-07T10:58:28.506Z,87.09
2017-03-07T10:59:29.744Z,87.09
2017-03-07T11:00:31.192Z,87.47
2017-03-07T11:01:32.556Z,87.76
2017-03-07T11:02:33.830Z,87.85
2017-03-07T11:03:35.050Z,87.85
2017-03-07T11:04:36.294Z,88.13
2017-03-07T11:05:37.543Z,88.33
2017-03-07T11:06:38.872Z,88.9
2017-03-07T11:07:40.208Z,88.61
2017-03-07T11:08:41.436Z,88.61
2017-03-07T11:09:42.679Z,89
2017-03-07T11:10:43.918Z,88.71
2017-03-07T11:11:45.183Z,88.52
2017-03-07T11:12:46.404Z,88.23
2017-03-07T11:13:47.646Z,88.52
2017-03-07T11:14:48.916Z,88.52
2017-03-07T11:15:50.194Z,88.04
2017-03-07T11:16:51.419Z,88.23
2017-03-07T11:17:52.681Z,87.85
2017-03-07T11:18:53.934Z,87.47
2017-03-07T11:19:55.200Z,86.43
2017-03-07T11:20:56.423Z,85.76
2017-03-07T11:21:57.717Z,84.72
2017-03-07T11:22:58.946Z,84.05
2017-03-07T11:24:00.192Z,83.67
2017-03-07T11:25:01.453Z,83.23
2017-03-07T11:26:02.704Z,84.38
2017-03-07T11:27:04.070Z,83.42
2017-03-07T11:28:05.364Z,83.71
2017-03-07T11:29:06.562Z,83.56
2017-03-07T11:30:07.821Z,81.56
2017-03-07T11:31:09.087Z,80.8
2017-03-07T11:32:10.432Z,80.61
2017-03-07T11:33:11.745Z,81.13
2017-03-07T11:34:12.988Z,80.75
2017-03-07T11:35:14.233Z,80.46
2017-03-07T11:36:15.476Z,80.31
2017-03-07T11:37:16.709Z,80.22
2017-03-07T11:38:17.991Z,79.36
2017-03-07T11:39:19.207Z,78.22
2017-03-07T11:40:20.452Z,78.69
2017-03-07T11:41:21.677Z,77.87
2017-03-07T11:42:22.928Z,77.4
2017-03-07T11:43:24.188Z,76.25
2017-03-07T11:44:25.416Z,75.34
2017-03-07T11:45:26.695Z,74.19
2017-03-07T11:46:27.902Z,73.68
2017-03-07T11:47:29.152Z,74.01
2017-03-07T11:48:30.394Z,74.48
2017-03-07T11:49:31.643Z,74.77
2017-03-07T11:50:32.910Z,74.63
2017-03-07T11:51:34.273Z,74.16
2017-03-07T11:52:35.507Z,74.92
2017-03-07T11:53:36.758Z,75.59
2017-03-07T11:54:37.995Z,75.84
2017-03-07T11:55:39.230Z,77.07
2017-03-07T11:56:40.484Z,76.59
2017-03-07T11:57:41.733Z,77.17
2017-03-07T11:58:43.003Z,77.64
2017-03-07T11:59:44.294Z,78.41
2017-03-07T12:00:45.539Z,78.22
2017-03-07T12:01:46.769Z,78.88
2017-03-07T12:02:48.023Z,78.59
2017-03-07T12:03:49.261Z,79.17
2017-03-07T12:04:50.557Z,79.64
2017-03-07T12:05:51.788Z,79.27
2017-03-07T12:06:53.037Z,78.59
2017-03-07T12:07:54.530Z,77.36
2017-03-07T12:08:55.771Z,77.07
2017-03-07T12:09:57.005Z,76.69
2017-03-07T12:10:58.335Z,76.64
2017-03-07T12:11:59.585Z,76.44
2017-03-07T12:13:00.856Z,77.01
2017-03-07T12:14:02.065Z,77.4
2017-03-07T12:15:03.300Z,77.01
2017-03-07T12:16:04.541Z,77.11
2017-03-07T12:17:05.796Z,77.78
2017-03-07T12:18:07.158Z,76.82
2017-03-07T12:19:08.383Z,76.92
2017-03-07T12:20:09.630Z,77.01
2017-03-07T12:21:10.891Z,76.25
2017-03-07T12:22:12.183Z,76.12
2017-03-07T12:23:13.367Z,76.4
2017-03-07T12:24:14.612Z,76.88
2017-03-07T12:25:16.002Z,76.88
2017-03-07T12:26:17.272Z,76.79
2017-03-07T12:27:18.613Z,76.69
2017-03-07T12:28:19.867Z,77.26
2017-03-07T12:29:21.141Z,77.83
2017-03-07T12:30:22.454Z,77.55
2017-03-07T12:31:23.700Z,78.98
2017-03-07T12:32:24.968Z,78.5
2017-03-07T12:33:26.189Z,78.88
2017-03-07T12:34:27.426Z,78.65
2017-03-07T12:35:28.679Z,79.6
2017-03-07T12:36:29.941Z,80.27
2017-03-07T12:37:31.176Z,79.89
2017-03-07T12:38:32.408Z,79.8
2017-03-07T12:39:33.676Z,79.89
2017-03-07T12:40:34.994Z,79.51
2017-03-07T12:41:36.311Z,79.7
2017-03-07T12:42:37.587Z,79.13
2017-03-07T12:43:38.813Z,80.36
2017-03-07T12:44:40.056Z,80.18
2017-03-07T12:45:41.291Z,79.89
2017-03-07T12:46:42.598Z,79.41
2017-03-07T12:47:43.853Z,79.17
2017-03-07T12:48:45.074Z,79.17
2017-03-07T12:49:46.324Z,79.17
2017-03-07T12:50:47.569Z,79.59
2017-03-07T12:51:48.836Z,79.3
2017-03-07T12:52:50.074Z,78.25
2017-03-07T12:53:51.310Z,76.54
2017-03-07T12:54:52.662Z,75.87
2017-03-07T12:55:53.957Z,75.68
2017-03-07T12:56:55.209Z,75.3
2017-03-07T12:57:56.470Z,75.62
2017-03-07T12:58:57.719Z,75.53
2017-03-07T12:59:58.978Z,75.62
2017-03-07T13:01:00.201Z,75.81
2017-03-07T13:02:01.535Z,75.24
2017-03-07T13:03:02.893Z,75.15
2017-03-07T13:04:04.155Z,74.73
2017-03-07T13:05:05.403Z,76.54
2017-03-07T13:06:06.702Z,77.97
2017-03-07T13:07:08.021Z,77.69
2017-03-07T13:08:09.262Z,76.82
2017-03-07T13:09:10.509Z,77.97
2017-03-07T13:10:11.758Z,77.59
2017-03-07T13:11:12.998Z,77.01
2017-03-07T13:12:14.303Z,77.55
2017-03-07T13:13:15.692Z,77.83
2017-03-07T13:14:16.865Z,78.69
2017-03-07T13:15:18.099Z,78.25
2017-03-07T13:16:19.332Z,78.35
2017-03-07T13:17:20.609Z,77.87
2017-03-07T13:18:22.293Z,77.59
2017-03-07T13:19:23.793Z,77.87
2017-03-07T13:20:25.039Z,77.97
2017-03-07T13:21:26.261Z,78.16
2017-03-07T13:22:27.492Z,77.78
2017-03-07T13:23:28.748Z,78.73
2017-03-07T13:24:30.008Z,78.44
2017-03-07T13:25:31.265Z,78.83
2017-03-07T13:26:32.504Z,78.64
2017-03-07T13:27:33.747Z,78.35
2017-03-07T13:28:35.017Z,77.49
2017-03-07T13:29:36.368Z,77.2
2017-03-07T13:30:37.603Z,76.73
2017-03-07T13:31:38.857Z,75.96
2017-03-07T13:32:40.141Z,76.03
2017-03-07T13:33:41.377Z,76.21
2017-03-07T13:34:42.645Z,77.55
2017-03-07T13:35:43.879Z,78.37
2017-03-07T13:36:45.189Z,79.17
2017-03-07T13:37:46.488Z,79.7
2017-03-07T13:38:47.729Z,80.27
2017-03-07T13:39:48.969Z,80.27
2017-03-07T13:40:50.206Z,80.27
2017-03-07T13:41:51.524Z,80.27
2017-03-07T13:42:52.835Z,81.47
2017-03-07T13:43:54.168Z,81.37
2017-03-07T13:44:55.407Z,81.47
2017-03-07T13:45:56.652Z,82.76
2017-03-07T13:46:57.897Z,83.62
2017-03-07T13:47:59.130Z,84.09
2017-03-07T13:49:00.383Z,84.72
2017-03-07T13:50:01.693Z,85.47
2017-03-07T13:51:02.939Z,85.91
2017-03-07T13:52:04.178Z,86.71
2017-03-07T13:53:05.427Z,87.24
2017-03-07T13:54:06.697Z,87.05
2017-03-07T13:55:08.094Z,87.9
2017-03-07T13:56:09.244Z,87.71
2017-03-07T13:57:10.493Z,87.62
2017-03-07T13:58:11.742Z,88.67
2017-03-07T13:59:13.039Z,88.67
2017-03-07T14:00:14.242Z,89.14
2017-03-07T14:01:15.520Z,88.95
2017-03-07T14:02:16.819Z,89.52
2017-03-07T14:03:18.156Z,88.95
2017-03-07T14:04:19.404Z,89.33
2017-03-07T14:05:20.649Z,89.33
2017-03-07T14:06:21.908Z,88.95
2017-03-07T14:07:23.173Z,89.04
2017-03-07T14:08:24.482Z,89.42
2017-03-07T14:09:25.745Z,89.14
2017-03-07T14:10:26.945Z,89.23
2017-03-07T14:11:28.404Z,88.38
2017-03-07T14:12:29.674Z,88.38
2017-03-07T14:13:30.878Z,88.28
2017-03-07T14:14:32.195Z,87.81
2017-03-07T14:15:33.437Z,87.24
2017-03-07T14:16:34.688Z,86.57
2017-03-07T14:17:35.922Z,86.38
2017-03-07T14:18:37.209Z,87.05
2017-03-07T14:19:38.457Z,87.19
2017-03-07T14:20:39.695Z,86.61
2017-03-07T14:21:41.002Z,86.61
2017-03-07T14:22:42.261Z,85.76
2017-03-07T14:23:43.493Z,85.76
2017-03-07T14:24:44.744Z,86.71
2017-03-07T14:25:45.984Z,86.24
2017-03-07T14:26:47.231Z,85.76
2017-03-07T14:27:48.494Z,85.15
2017-03-07T14:28:49.771Z,85.81
2017-03-07T14:29:51.030Z,86.52
2017-03-07T14:30:52.327Z,86.47
2017-03-07T14:31:53.566Z,86.47
2017-03-07T14:32:54.870Z,86.52
2017-03-07T14:33:56.173Z,86.61
2017-03-07T14:34:57.429Z,85.86
2017-03-07T14:35:58.686Z,85.28
2017-03-07T14:36:59.944Z,85.38
2017-03-07T14:38:01.192Z,86.05
2017-03-07T14:39:02.465Z,85.28
2017-03-07T14:40:03.689Z,85.95
2017-03-07T14:41:04.993Z,86.14
2017-03-07T14:42:06.212Z,85.91
2017-03-07T14:43:07.451Z,85.81
2017-03-07T14:44:08.691Z,85.53
2017-03-07T14:45:09.938Z,85.72
2017-03-07T14:46:11.286Z,85.76
2017-03-07T14:47:12.548Z,85.34
2017-03-07T14:48:13.870Z,85.72
2017-03-07T14:49:15.118Z,86.19
2017-03-07T14:50:16.366Z,86.19
2017-03-07T14:51:17.605Z,87.24
2017-03-07T14:52:19.205Z,87.52
2017-03-07T14:53:20.621Z,86.52
2017-03-07T14:54:22.110Z,87.47
2017-03-07T14:55:23.472Z,87.28
2017-03-07T14:56:24.708Z,87.28
2017-03-07T14:57:25.959Z,86.61
2017-03-07T14:58:27.197Z,85.76
2017-03-07T14:59:28.456Z,85.86
2017-03-07T15:00:29.672Z,85.95
2017-03-07T15:01:30.925Z,85.28
2017-03-07T15:02:32.198Z,85.28
2017-03-07T15:03:33.462Z,85
2017-03-07T15:04:34.717Z,85.38
2017-03-07T15:05:36.017Z,85.66
2017-03-07T15:06:37.261Z,85.33
2017-03-07T15:07:38.732Z,85.61
2017-03-07T15:08:39.929Z,84.28
2017-03-07T15:09:41.162Z,84.95
2017-03-07T15:10:42.396Z,84.47
2017-03-07T15:11:43.645Z,84.09
2017-03-07T15:12:44.915Z,83.42
2017-03-07T15:13:46.189Z,83.9
2017-03-07T15:14:47.407Z,84.19
2017-03-07T15:15:48.642Z,83.71
2017-03-07T15:16:49.928Z,83.9
2017-03-07T15:17:51.167Z,83.28
2017-03-07T15:18:52.448Z,83.37
2017-03-07T15:19:53.694Z,83.37
2017-03-07T15:20:54.943Z,82.76
2017-03-07T15:21:56.261Z,83.37
2017-03-07T15:22:57.498Z,83.18
2017-03-07T15:23:58.746Z,83.65
2017-03-07T15:25:00.014Z,82.8
2017-03-07T15:26:01.252Z,83.28
2017-03-07T15:27:02.554Z,83.09
2017-03-07T15:28:03.811Z,83.18
2017-03-07T15:29:05.063Z,83.09
2017-03-07T15:30:06.314Z,82.9
2017-03-07T15:31:07.575Z,83.09
2017-03-07T15:32:08.825Z,83.18
2017-03-07T15:33:10.305Z,82.9
2017-03-07T15:34:11.534Z,83.28
2017-03-07T15:35:12.845Z,83.37
2017-03-07T15:36:14.073Z,83.33
2017-03-07T15:37:15.319Z,83.33
2017-03-07T15:38:16.707Z,83.33
2017-03-07T15:39:17.970Z,83.52
2017-03-07T15:40:19.205Z,83.33
2017-03-07T15:41:20.466Z,83.62
2017-03-07T15:42:21.704Z,83.9
2017-03-07T15:43:23.050Z,84.38
2017-03-07T15:44:24.313Z,84.85
2017-03-07T15:45:25.584Z,84.05
2017-03-07T15:46:26.904Z,84.14
2017-03-07T15:47:28.152Z,84.33
2017-03-07T15:48:29.405Z,84.72
2017-03-07T15:49:30.711Z,84.72
2017-03-07T15:50:31.962Z,85.19
2017-03-07T15:51:33.193Z,85.38
2017-03-07T15:52:34.536Z,85.95
2017-03-07T15:53:35.786Z,86.14
2017-03-07T15:54:37.010Z,86.14
2017-03-07T15:55:38.242Z,86.24
2017-03-07T15:56:39.513Z,85.76
2017-03-07T15:57:40.829Z,86.24
2017-03-07T15:58:42.094Z,86.71
2017-03-07T15:59:43.376Z,86.71
2017-03-07T16:00:44.599Z,86.71
2017-03-07T16:01:45.840Z,86.52
2017-03-07T16:02:47.089Z,86.24
2017-03-07T16:03:48.478Z,85.86
2017-03-07T16:04:49.696Z,86.05
2017-03-07T16:05:50.952Z,85.95
2017-03-07T16:06:52.187Z,85.66
2017-03-07T16:07:53.444Z,85.76
2017-03-07T16:08:54.691Z,86.24
2017-03-07T16:09:55.943Z,86.33
2017-03-07T16:10:57.210Z,86.24
2017-03-07T16:11:58.607Z,85.86
2017-03-07T16:12:59.858Z,85.57
2017-03-07T16:14:01.287Z,84.85
2017-03-07T16:15:02.557Z,84.28
2017-03-07T16:16:03.794Z,84.47
2017-03-07T16:17:05.048Z,84.85
2017-03-07T16:18:06.295Z,84.47
2017-03-07T16:19:07.547Z,84
2017-03-07T16:20:08.793Z,84.47
2017-03-07T16:21:10.058Z,84.66
2017-03-07T16:22:11.303Z,84.56
2017-03-07T16:23:12.648Z,84.28
2017-03-07T16:24:13.916Z,83.71
2017-03-07T16:25:15.147Z,83.62
2017-03-07T16:26:16.409Z,84.28
2017-03-07T16:27:17.624Z,84.47
2017-03-07T16:28:18.890Z,84.47
2017-03-07T16:29:20.175Z,84.47
2017-03-07T16:30:21.405Z,84.28
2017-03-07T16:31:22.653Z,84.47
2017-03-07T16:32:23.907Z,84.47
2017-03-07T16:33:25.172Z,85.24
2017-03-07T16:34:26.560Z,85.28
2017-03-07T16:35:27.815Z,85.33
2017-03-07T16:36:29.067Z,85.1
2017-03-07T16:37:30.318Z,85.28
2017-03-07T16:38:31.587Z,85.66
2017-03-07T16:39:32.938Z,85.95
2017-03-07T16:40:34.226Z,86.05
2017-03-07T16:41:35.488Z,86.05
2017-03-07T16:42:36.859Z,86.43
2017-03-07T16:43:38.125Z,86.43
2017-03-07T16:44:39.374Z,86.52
2017-03-07T16:45:40.673Z,86.8
2017-03-07T16:46:41.958Z,87.38
2017-03-07T16:47:43.210Z,86.9
2017-03-07T16:48:44.488Z,86.52
2017-03-07T16:49:45.729Z,86.61
2017-03-07T16:50:46.989Z,87.47
2017-03-07T16:51:48.229Z,87.28
2017-03-07T16:52:49.528Z,86.71
2017-03-07T16:53:50.807Z,86.52
2017-03-07T16:54:52.034Z,86.71
2017-03-07T16:55:53.291Z,86.76
2017-03-07T16:56:54.565Z,86.43
2017-03-07T16:57:55.782Z,85.81
2017-03-07T16:58:57.074Z,85.05
2017-03-07T16:59:58.279Z,84.67
2017-03-07T17:00:59.535Z,84.77
2017-03-07T17:02:00.777Z,84.67
2017-03-07T17:03:02.027Z,84.29
2017-03-07T17:04:03.350Z,84.01
2017-03-07T17:05:04.580Z,83.72
2017-03-07T17:06:05.821Z,83.62
2017-03-07T17:07:07.062Z,83.91
2017-03-07T17:08:08.289Z,83.72
2017-03-07T17:09:09.534Z,84.2
2017-03-07T17:10:10.845Z,84.58
2017-03-07T17:11:12.120Z,84.39
2017-03-07T17:12:13.361Z,84.77
2017-03-07T17:13:14.609Z,84.58
2017-03-07T17:14:15.871Z,84.86
2017-03-07T17:15:17.130Z,84.86
2017-03-07T17:16:18.368Z,84.86
2017-03-07T17:17:19.615Z,85.15
2017-03-07T17:18:20.961Z,85.53
2017-03-07T17:19:22.203Z,85.34
2017-03-07T17:20:23.459Z,85.81
2017-03-07T17:21:24.674Z,85.81
2017-03-07T17:22:25.913Z,85.72
2017-03-07T17:23:27.173Z,85.81
2017-03-07T17:24:28.560Z,85.53
2017-03-07T17:25:29.821Z,85.34
2017-03-07T17:26:31.059Z,85.53
2017-03-07T17:27:32.308Z,85.81
2017-03-07T17:28:33.824Z,85.81